sensor_id;sensor_type;location;lat;lon;timestamp;P1;durP1;ratioP1;P2;durP2;ratioP2
50128;SDS011;36026;45.478;9.224;2023-07-29T00:02:59;4.15;;;2.75;;
50128;SDS011;36026;45.478;9.224;2023-07-29T00:06:01;5.15;;;3.10;;
50128;SDS011;36026;45.478;9.224;2023-07-29T00:09:02;4.93;;;3.25;;
50128;SDS011;36026;45.478;9.224;2023-07-29T00:12:04;5.35;;;3.08;;
50128;SDS011;36026;45.478;9.224;2023-07-29T00:15:07;4.40;;;2.85;;
50128;SDS011;36026;45.478;9.224;2023-07-29T00:18:09;6.13;;;3.25;;
50128;SDS011;36026;45.478;9.224;2023-07-29T00:21:10;5.55;;;3.38;;
50128;SDS011;36026;45.478;9.224;2023-07-29T00:24:12;5.25;;;3.10;;
50128;SDS011;36026;45.478;9.224;2023-07-29T00:27:13;5.88;;;3.45;;
50128;SDS011;36026;45.478;9.224;2023-07-29T00:30:16;6.10;;;3.80;;
50128;SDS011;36026;45.478;9.224;2023-07-29T00:33:18;7.97;;;3.15;;
50128;SDS011;36026;45.478;9.224;2023-07-29T00:36:20;5.85;;;3.30;;
50128;SDS011;36026;45.478;9.224;2023-07-29T00:39:21;5.30;;;3.40;;
50128;SDS011;36026;45.478;9.224;2023-07-29T00:42:23;5.82;;;3.22;;
50128;SDS011;36026;45.478;9.224;2023-07-29T00:45:26;4.22;;;2.92;;
50128;SDS011;36026;45.478;9.224;2023-07-29T00:48:28;5.55;;;3.05;;
50128;SDS011;36026;45.478;9.224;2023-07-29T00:51:29;6.47;;;3.00;;
50128;SDS011;36026;45.478;9.224;2023-07-29T00:54:31;4.45;;;3.30;;
50128;SDS011;36026;45.478;9.224;2023-07-29T00:57:32;4.43;;;3.03;;
50128;SDS011;36026;45.478;9.224;2023-07-29T01:00:35;4.15;;;3.15;;
50128;SDS011;36026;45.478;9.224;2023-07-29T01:03:37;6.30;;;3.45;;
50128;SDS011;36026;45.478;9.224;2023-07-29T01:06:44;6.72;;;3.50;;
50128;SDS011;36026;45.478;9.224;2023-07-29T01:09:50;6.70;;;3.38;;
50128;SDS011;36026;45.478;9.224;2023-07-29T01:12:54;5.35;;;3.30;;
50128;SDS011;36026;45.478;9.224;2023-07-29T01:16:00;4.75;;;3.13;;
50128;SDS011;36026;45.478;9.224;2023-07-29T01:19:04;7.10;;;3.40;;
50128;SDS011;36026;45.478;9.224;2023-07-29T01:25:08;5.57;;;3.10;;
50128;SDS011;36026;45.478;9.224;2023-07-29T01:28:10;7.20;;;3.35;;
50128;SDS011;36026;45.478;9.224;2023-07-29T01:31:12;10.55;;;3.58;;
50128;SDS011;36026;45.478;9.224;2023-07-29T01:34:16;6.85;;;3.38;;
50128;SDS011;36026;45.478;9.224;2023-07-29T01:37:19;5.97;;;3.40;;
50128;SDS011;36026;45.478;9.224;2023-07-29T01:40:22;9.18;;;3.70;;
50128;SDS011;36026;45.478;9.224;2023-07-29T01:43:24;5.50;;;3.40;;
50128;SDS011;36026;45.478;9.224;2023-07-29T01:46:26;7.18;;;3.10;;
50128;SDS011;36026;45.478;9.224;2023-07-29T01:49:27;8.52;;;3.92;;
50128;SDS011;36026;45.478;9.224;2023-07-29T01:52:29;4.95;;;3.35;;
50128;SDS011;36026;45.478;9.224;2023-07-29T01:55:31;5.28;;;2.90;;
50128;SDS011;36026;45.478;9.224;2023-07-29T01:58:33;5.30;;;3.53;;
50128;SDS011;36026;45.478;9.224;2023-07-29T02:01:34;5.93;;;3.55;;
50128;SDS011;36026;45.478;9.224;2023-07-29T02:04:36;6.03;;;3.33;;
50128;SDS011;36026;45.478;9.224;2023-07-29T02:07:38;6.25;;;3.50;;
50128;SDS011;36026;45.478;9.224;2023-07-29T02:10:41;6.63;;;3.45;;
50128;SDS011;36026;45.478;9.224;2023-07-29T02:13:45;5.75;;;3.30;;
50128;SDS011;36026;45.478;9.224;2023-07-29T02:16:46;6.93;;;3.38;;
50128;SDS011;36026;45.478;9.224;2023-07-29T02:19:48;6.22;;;3.65;;
50128;SDS011;36026;45.478;9.224;2023-07-29T02:22:49;6.38;;;3.63;;
50128;SDS011;36026;45.478;9.224;2023-07-29T02:25:52;6.57;;;3.60;;
50128;SDS011;36026;45.478;9.224;2023-07-29T02:28:53;4.90;;;3.17;;
50128;SDS011;36026;45.478;9.224;2023-07-29T02:31:55;5.80;;;3.47;;
50128;SDS011;36026;45.478;9.224;2023-07-29T02:34:56;6.25;;;3.10;;
50128;SDS011;36026;45.478;9.224;2023-07-29T02:37:58;4.72;;;3.10;;
50128;SDS011;36026;45.478;9.224;2023-07-29T02:41:01;6.53;;;3.42;;
50128;SDS011;36026;45.478;9.224;2023-07-29T02:44:02;6.30;;;3.47;;
50128;SDS011;36026;45.478;9.224;2023-07-29T02:47:04;5.25;;;3.42;;
50128;SDS011;36026;45.478;9.224;2023-07-29T02:50:05;4.53;;;2.90;;
50128;SDS011;36026;45.478;9.224;2023-07-29T02:53:07;4.10;;;3.13;;
50128;SDS011;36026;45.478;9.224;2023-07-29T02:56:10;3.85;;;2.72;;
50128;SDS011;36026;45.478;9.224;2023-07-29T02:59:11;4.95;;;2.95;;
50128;SDS011;36026;45.478;9.224;2023-07-29T03:02:13;5.15;;;3.00;;
50128;SDS011;36026;45.478;9.224;2023-07-29T03:05:16;4.68;;;2.90;;
50128;SDS011;36026;45.478;9.224;2023-07-29T03:08:17;6.05;;;2.85;;
50128;SDS011;36026;45.478;9.224;2023-07-29T03:11:20;6.93;;;3.20;;
50128;SDS011;36026;45.478;9.224;2023-07-29T03:14:21;4.13;;;2.92;;
50128;SDS011;36026;45.478;9.224;2023-07-29T03:17:23;5.22;;;2.75;;
50128;SDS011;36026;45.478;9.224;2023-07-29T03:20:24;3.78;;;2.53;;
50128;SDS011;36026;45.478;9.224;2023-07-29T03:23:27;6.03;;;3.05;;
50128;SDS011;36026;45.478;9.224;2023-07-29T03:26:30;4.03;;;2.67;;
50128;SDS011;36026;45.478;9.224;2023-07-29T03:29:31;6.85;;;2.88;;
50128;SDS011;36026;45.478;9.224;2023-07-29T03:32:32;3.78;;;2.80;;
50128;SDS011;36026;45.478;9.224;2023-07-29T03:35:34;4.15;;;3.03;;
50128;SDS011;36026;45.478;9.224;2023-07-29T03:38:35;4.30;;;2.90;;
50128;SDS011;36026;45.478;9.224;2023-07-29T03:41:41;4.47;;;2.60;;
50128;SDS011;36026;45.478;9.224;2023-07-29T03:44:42;4.60;;;3.30;;
50128;SDS011;36026;45.478;9.224;2023-07-29T03:47:44;5.22;;;2.88;;
50128;SDS011;36026;45.478;9.224;2023-07-29T03:50:45;8.20;;;3.33;;
50128;SDS011;36026;45.478;9.224;2023-07-29T03:53:47;5.50;;;3.00;;
50128;SDS011;36026;45.478;9.224;2023-07-29T03:56:49;5.78;;;2.95;;
50128;SDS011;36026;45.478;9.224;2023-07-29T03:59:51;6.32;;;3.13;;
50128;SDS011;36026;45.478;9.224;2023-07-29T04:02:52;5.40;;;3.22;;
50128;SDS011;36026;45.478;9.224;2023-07-29T04:05:54;6.50;;;2.60;;
50128;SDS011;36026;45.478;9.224;2023-07-29T04:08:55;5.55;;;3.03;;
50128;SDS011;36026;45.478;9.224;2023-07-29T04:11:58;4.93;;;2.80;;
50128;SDS011;36026;45.478;9.224;2023-07-29T04:14:59;5.45;;;3.03;;
50128;SDS011;36026;45.478;9.224;2023-07-29T04:18:01;6.00;;;3.22;;
50128;SDS011;36026;45.478;9.224;2023-07-29T04:21:02;4.63;;;3.15;;
50128;SDS011;36026;45.478;9.224;2023-07-29T04:24:04;4.35;;;2.72;;
50128;SDS011;36026;45.478;9.224;2023-07-29T04:27:07;7.57;;;3.30;;
50128;SDS011;36026;45.478;9.224;2023-07-29T04:30:08;6.47;;;3.15;;
50128;SDS011;36026;45.478;9.224;2023-07-29T04:33:10;6.38;;;3.25;;
50128;SDS011;36026;45.478;9.224;2023-07-29T04:36:11;6.15;;;2.70;;
50128;SDS011;36026;45.478;9.224;2023-07-29T04:39:13;7.35;;;3.20;;
50128;SDS011;36026;45.478;9.224;2023-07-29T04:42:16;4.25;;;2.72;;
50128;SDS011;36026;45.478;9.224;2023-07-29T04:45:17;5.22;;;3.05;;
50128;SDS011;36026;45.478;9.224;2023-07-29T04:48:19;4.32;;;2.78;;
50128;SDS011;36026;45.478;9.224;2023-07-29T04:51:20;5.47;;;2.75;;
50128;SDS011;36026;45.478;9.224;2023-07-29T04:54:22;5.97;;;3.03;;
50128;SDS011;36026;45.478;9.224;2023-07-29T04:57:25;7.00;;;3.30;;
50128;SDS011;36026;45.478;9.224;2023-07-29T05:00:26;7.18;;;3.15;;
50128;SDS011;36026;45.478;9.224;2023-07-29T05:03:28;4.45;;;3.08;;
50128;SDS011;36026;45.478;9.224;2023-07-29T05:06:29;4.78;;;2.63;;
50128;SDS011;36026;45.478;9.224;2023-07-29T05:09:30;6.13;;;3.08;;
50128;SDS011;36026;45.478;9.224;2023-07-29T05:12:33;5.45;;;3.20;;
50128;SDS011;36026;45.478;9.224;2023-07-29T05:15:35;6.78;;;3.22;;
50128;SDS011;36026;45.478;9.224;2023-07-29T05:18:36;4.55;;;3.10;;
50128;SDS011;36026;45.478;9.224;2023-07-29T05:21:37;7.97;;;3.08;;
50128;SDS011;36026;45.478;9.224;2023-07-29T05:24:39;5.00;;;2.88;;
50128;SDS011;36026;45.478;9.224;2023-07-29T05:27:42;5.05;;;3.15;;
50128;SDS011;36026;45.478;9.224;2023-07-29T05:30:43;9.07;;;3.20;;
50128;SDS011;36026;45.478;9.224;2023-07-29T05:33:45;7.38;;;3.25;;
50128;SDS011;36026;45.478;9.224;2023-07-29T05:36:46;4.95;;;2.53;;
50128;SDS011;36026;45.478;9.224;2023-07-29T05:39:48;5.60;;;2.80;;
50128;SDS011;36026;45.478;9.224;2023-07-29T05:42:50;5.85;;;3.17;;
50128;SDS011;36026;45.478;9.224;2023-07-29T05:45:52;7.05;;;2.90;;
50128;SDS011;36026;45.478;9.224;2023-07-29T05:48:53;6.47;;;2.60;;
50128;SDS011;36026;45.478;9.224;2023-07-29T05:51:55;5.95;;;2.72;;
50128;SDS011;36026;45.478;9.224;2023-07-29T05:54:56;5.88;;;2.70;;
50128;SDS011;36026;45.478;9.224;2023-07-29T05:57:59;5.55;;;2.90;;
50128;SDS011;36026;45.478;9.224;2023-07-29T06:01:00;7.43;;;3.47;;
50128;SDS011;36026;45.478;9.224;2023-07-29T06:04:02;5.25;;;3.17;;
50128;SDS011;36026;45.478;9.224;2023-07-29T06:07:04;5.90;;;3.55;;
50128;SDS011;36026;45.478;9.224;2023-07-29T06:10:05;7.00;;;3.05;;
50128;SDS011;36026;45.478;9.224;2023-07-29T06:13:09;5.43;;;2.70;;
50128;SDS011;36026;45.478;9.224;2023-07-29T06:16:11;5.65;;;3.38;;
50128;SDS011;36026;45.478;9.224;2023-07-29T06:19:12;5.53;;;2.63;;
50128;SDS011;36026;45.478;9.224;2023-07-29T06:22:14;8.43;;;2.95;;
50128;SDS011;36026;45.478;9.224;2023-07-29T06:25:15;5.05;;;2.70;;
50128;SDS011;36026;45.478;9.224;2023-07-29T06:28:18;4.95;;;2.78;;
50128;SDS011;36026;45.478;9.224;2023-07-29T06:31:19;4.88;;;2.63;;
50128;SDS011;36026;45.478;9.224;2023-07-29T06:34:21;7.85;;;3.13;;
50128;SDS011;36026;45.478;9.224;2023-07-29T06:37:22;6.07;;;2.80;;
50128;SDS011;36026;45.478;9.224;2023-07-29T06:40:24;6.68;;;3.42;;
50128;SDS011;36026;45.478;9.224;2023-07-29T06:43:27;9.15;;;3.03;;
50128;SDS011;36026;45.478;9.224;2023-07-29T06:46:28;7.05;;;3.10;;
50128;SDS011;36026;45.478;9.224;2023-07-29T06:49:30;5.70;;;3.33;;
50128;SDS011;36026;45.478;9.224;2023-07-29T06:52:31;4.97;;;3.00;;
50128;SDS011;36026;45.478;9.224;2023-07-29T06:55:33;4.88;;;3.03;;
50128;SDS011;36026;45.478;9.224;2023-07-29T06:58:35;5.15;;;2.70;;
50128;SDS011;36026;45.478;9.224;2023-07-29T07:01:37;4.63;;;2.58;;
50128;SDS011;36026;45.478;9.224;2023-07-29T07:04:38;7.10;;;2.85;;
50128;SDS011;36026;45.478;9.224;2023-07-29T07:07:40;5.75;;;3.15;;
50128;SDS011;36026;45.478;9.224;2023-07-29T07:10:42;4.70;;;2.70;;
50128;SDS011;36026;45.478;9.224;2023-07-29T07:13:45;12.95;;;3.03;;
50128;SDS011;36026;45.478;9.224;2023-07-29T07:16:46;7.65;;;2.83;;
50128;SDS011;36026;45.478;9.224;2023-07-29T07:19:47;7.00;;;2.97;;
50128;SDS011;36026;45.478;9.224;2023-07-29T07:22:50;6.15;;;2.50;;
50128;SDS011;36026;45.478;9.224;2023-07-29T07:25:51;5.53;;;2.53;;
50128;SDS011;36026;45.478;9.224;2023-07-29T07:28:54;4.75;;;2.33;;
50128;SDS011;36026;45.478;9.224;2023-07-29T07:31:55;6.32;;;2.85;;
50128;SDS011;36026;45.478;9.224;2023-07-29T07:34:57;2.97;;;2.30;;
50128;SDS011;36026;45.478;9.224;2023-07-29T07:37:58;3.38;;;2.22;;
50128;SDS011;36026;45.478;9.224;2023-07-29T07:41:02;6.70;;;2.72;;
50128;SDS011;36026;45.478;9.224;2023-07-29T07:44:05;6.63;;;3.00;;
50128;SDS011;36026;45.478;9.224;2023-07-29T07:47:06;6.18;;;2.33;;
50128;SDS011;36026;45.478;9.224;2023-07-29T07:50:08;5.45;;;2.40;;
50128;SDS011;36026;45.478;9.224;2023-07-29T07:53:09;5.32;;;2.35;;
50128;SDS011;36026;45.478;9.224;2023-07-29T07:56:11;6.53;;;2.35;;
50128;SDS011;36026;45.478;9.224;2023-07-29T07:59:14;4.15;;;2.40;;
50128;SDS011;36026;45.478;9.224;2023-07-29T08:02:15;4.80;;;2.33;;
50128;SDS011;36026;45.478;9.224;2023-07-29T08:05:17;4.40;;;2.53;;
50128;SDS011;36026;45.478;9.224;2023-07-29T08:08:18;4.28;;;2.30;;
50128;SDS011;36026;45.478;9.224;2023-07-29T08:11:19;2.78;;;2.00;;
50128;SDS011;36026;45.478;9.224;2023-07-29T08:14:22;10.57;;;2.55;;
50128;SDS011;36026;45.478;9.224;2023-07-29T08:17:24;4.95;;;2.38;;
50128;SDS011;36026;45.478;9.224;2023-07-29T08:20:25;5.15;;;2.10;;
50128;SDS011;36026;45.478;9.224;2023-07-29T08:23:26;6.32;;;2.35;;
50128;SDS011;36026;45.478;9.224;2023-07-29T08:26:28;5.05;;;2.58;;
50128;SDS011;36026;45.478;9.224;2023-07-29T08:29:31;3.67;;;2.35;;
50128;SDS011;36026;45.478;9.224;2023-07-29T08:32:32;5.18;;;2.80;;
50128;SDS011;36026;45.478;9.224;2023-07-29T08:35:34;5.00;;;2.30;;
50128;SDS011;36026;45.478;9.224;2023-07-29T08:38:35;4.88;;;2.13;;
50128;SDS011;36026;45.478;9.224;2023-07-29T08:41:37;4.13;;;2.08;;
50128;SDS011;36026;45.478;9.224;2023-07-29T08:44:43;5.65;;;2.70;;
50128;SDS011;36026;45.478;9.224;2023-07-29T08:47:45;5.25;;;2.28;;
50128;SDS011;36026;45.478;9.224;2023-07-29T08:50:47;3.65;;;2.08;;
50128;SDS011;36026;45.478;9.224;2023-07-29T08:53:48;3.95;;;2.38;;
50128;SDS011;36026;45.478;9.224;2023-07-29T08:56:50;5.43;;;2.78;;
50128;SDS011;36026;45.478;9.224;2023-07-29T08:59:53;3.60;;;1.90;;
50128;SDS011;36026;45.478;9.224;2023-07-29T09:02:55;3.70;;;2.30;;
50128;SDS011;36026;45.478;9.224;2023-07-29T09:05:58;5.85;;;2.28;;
50128;SDS011;36026;45.478;9.224;2023-07-29T09:09:00;4.95;;;2.50;;
50128;SDS011;36026;45.478;9.224;2023-07-29T09:12:02;6.28;;;2.30;;
50128;SDS011;36026;45.478;9.224;2023-07-29T09:15:06;6.80;;;2.75;;
50128;SDS011;36026;45.478;9.224;2023-07-29T09:18:11;5.95;;;2.63;;
50128;SDS011;36026;45.478;9.224;2023-07-29T09:21:13;4.15;;;2.38;;
50128;SDS011;36026;45.478;9.224;2023-07-29T09:27:23;6.25;;;2.20;;
50128;SDS011;36026;45.478;9.224;2023-07-29T09:30:27;3.70;;;2.17;;
50128;SDS011;36026;45.478;9.224;2023-07-29T09:33:29;3.38;;;2.05;;
50128;SDS011;36026;45.478;9.224;2023-07-29T09:36:32;4.68;;;2.38;;
50128;SDS011;36026;45.478;9.224;2023-07-29T09:39:33;4.68;;;2.30;;
50128;SDS011;36026;45.478;9.224;2023-07-29T09:42:35;6.28;;;2.22;;
50128;SDS011;36026;45.478;9.224;2023-07-29T09:45:38;4.22;;;2.53;;
50128;SDS011;36026;45.478;9.224;2023-07-29T09:51:42;5.43;;;2.27;;
50128;SDS011;36026;45.478;9.224;2023-07-29T09:54:43;4.35;;;2.08;;
50128;SDS011;36026;45.478;9.224;2023-07-29T09:57:45;4.72;;;2.40;;
50128;SDS011;36026;45.478;9.224;2023-07-29T10:00:48;4.07;;;2.00;;
50128;SDS011;36026;45.478;9.224;2023-07-29T10:03:49;2.38;;;1.85;;
50128;SDS011;36026;45.478;9.224;2023-07-29T10:06:51;6.90;;;2.40;;
50128;SDS011;36026;45.478;9.224;2023-07-29T10:09:53;8.52;;;2.70;;
50128;SDS011;36026;45.478;9.224;2023-07-29T10:12:55;3.45;;;2.38;;
50128;SDS011;36026;45.478;9.224;2023-07-29T10:15:59;5.75;;;2.35;;
50128;SDS011;36026;45.478;9.224;2023-07-29T10:19:02;4.45;;;2.10;;
50128;SDS011;36026;45.478;9.224;2023-07-29T10:22:04;5.60;;;2.40;;
50128;SDS011;36026;45.478;9.224;2023-07-29T10:25:08;5.68;;;2.40;;
50128;SDS011;36026;45.478;9.224;2023-07-29T10:28:10;3.78;;;2.30;;
50128;SDS011;36026;45.478;9.224;2023-07-29T10:31:14;8.15;;;2.42;;
50128;SDS011;36026;45.478;9.224;2023-07-29T10:34:16;5.25;;;2.35;;
50128;SDS011;36026;45.478;9.224;2023-07-29T10:37:18;4.18;;;2.03;;
50128;SDS011;36026;45.478;9.224;2023-07-29T10:40:19;3.72;;;2.42;;
50128;SDS011;36026;45.478;9.224;2023-07-29T10:43:24;4.55;;;2.20;;
50128;SDS011;36026;45.478;9.224;2023-07-29T10:46:27;4.10;;;2.53;;
50128;SDS011;36026;45.478;9.224;2023-07-29T10:49:28;4.10;;;2.38;;
50128;SDS011;36026;45.478;9.224;2023-07-29T10:52:40;4.07;;;2.25;;
50128;SDS011;36026;45.478;9.224;2023-07-29T10:55:43;3.53;;;1.92;;
50128;SDS011;36026;45.478;9.224;2023-07-29T10:58:45;3.70;;;1.88;;
50128;SDS011;36026;45.478;9.224;2023-07-29T11:01:52;4.77;;;2.00;;
50128;SDS011;36026;45.478;9.224;2023-07-29T11:04:54;3.70;;;2.35;;
50128;SDS011;36026;45.478;9.224;2023-07-29T11:07:55;3.85;;;2.05;;
50128;SDS011;36026;45.478;9.224;2023-07-29T11:10:57;2.80;;;2.10;;
50128;SDS011;36026;45.478;9.224;2023-07-29T11:13:59;4.30;;;2.03;;
50128;SDS011;36026;45.478;9.224;2023-07-29T11:17:02;4.88;;;2.55;;
50128;SDS011;36026;45.478;9.224;2023-07-29T11:20:05;4.03;;;2.45;;
50128;SDS011;36026;45.478;9.224;2023-07-29T11:23:07;5.20;;;2.28;;
50128;SDS011;36026;45.478;9.224;2023-07-29T11:26:08;9.93;;;2.50;;
50128;SDS011;36026;45.478;9.224;2023-07-29T11:29:10;6.50;;;2.20;;
50128;SDS011;36026;45.478;9.224;2023-07-29T11:32:13;4.57;;;2.17;;
50128;SDS011;36026;45.478;9.224;2023-07-29T11:35:16;5.63;;;2.30;;
50128;SDS011;36026;45.478;9.224;2023-07-29T11:38:18;4.70;;;2.88;;
50128;SDS011;36026;45.478;9.224;2023-07-29T11:41:20;4.32;;;2.20;;
50128;SDS011;36026;45.478;9.224;2023-07-29T11:44:22;4.18;;;2.33;;
50128;SDS011;36026;45.478;9.224;2023-07-29T11:47:25;3.28;;;2.10;;
50128;SDS011;36026;45.478;9.224;2023-07-29T11:50:27;7.05;;;2.30;;
50128;SDS011;36026;45.478;9.224;2023-07-29T11:53:29;3.55;;;2.22;;
50128;SDS011;36026;45.478;9.224;2023-07-29T11:56:30;2.92;;;2.30;;
50128;SDS011;36026;45.478;9.224;2023-07-29T11:59:33;4.63;;;2.17;;
50128;SDS011;36026;45.478;9.224;2023-07-29T12:02:37;3.57;;;2.30;;
50128;SDS011;36026;45.478;9.224;2023-07-29T12:05:39;4.38;;;2.30;;
50128;SDS011;36026;45.478;9.224;2023-07-29T12:08:40;2.92;;;1.90;;
50128;SDS011;36026;45.478;9.224;2023-07-29T12:11:43;3.58;;;2.42;;
50128;SDS011;36026;45.478;9.224;2023-07-29T12:14:45;5.03;;;2.17;;
50128;SDS011;36026;45.478;9.224;2023-07-29T12:20:50;6.22;;;2.15;;
50128;SDS011;36026;45.478;9.224;2023-07-29T12:23:51;3.95;;;2.40;;
50128;SDS011;36026;45.478;9.224;2023-07-29T12:26:53;4.95;;;2.38;;
50128;SDS011;36026;45.478;9.224;2023-07-29T12:29:54;2.97;;;2.00;;
50128;SDS011;36026;45.478;9.224;2023-07-29T12:32:55;5.00;;;2.63;;
50128;SDS011;36026;45.478;9.224;2023-07-29T12:35:58;6.03;;;2.60;;
50128;SDS011;36026;45.478;9.224;2023-07-29T12:39:00;3.22;;;2.20;;
50128;SDS011;36026;45.478;9.224;2023-07-29T12:42:02;6.40;;;2.10;;
50128;SDS011;36026;45.478;9.224;2023-07-29T12:48:05;3.88;;;2.33;;
50128;SDS011;36026;45.478;9.224;2023-07-29T12:51:08;6.38;;;2.30;;
50128;SDS011;36026;45.478;9.224;2023-07-29T12:54:09;6.43;;;2.53;;
50128;SDS011;36026;45.478;9.224;2023-07-29T12:57:11;8.13;;;2.05;;
50128;SDS011;36026;45.478;9.224;2023-07-29T13:00:13;4.45;;;2.38;;
50128;SDS011;36026;45.478;9.224;2023-07-29T13:03:14;4.10;;;2.00;;
50128;SDS011;36026;45.478;9.224;2023-07-29T13:06:17;6.10;;;2.38;;
50128;SDS011;36026;45.478;9.224;2023-07-29T13:09:19;5.53;;;2.10;;
50128;SDS011;36026;45.478;9.224;2023-07-29T13:12:20;5.45;;;2.03;;
50128;SDS011;36026;45.478;9.224;2023-07-29T13:15:22;3.42;;;2.05;;
50128;SDS011;36026;45.478;9.224;2023-07-29T13:18:23;3.05;;;2.60;;
50128;SDS011;36026;45.478;9.224;2023-07-29T13:21:26;5.07;;;2.08;;
50128;SDS011;36026;45.478;9.224;2023-07-29T13:24:27;3.10;;;2.17;;
50128;SDS011;36026;45.478;9.224;2023-07-29T13:27:29;5.43;;;2.13;;
50128;SDS011;36026;45.478;9.224;2023-07-29T13:30:30;4.45;;;2.35;;
50128;SDS011;36026;45.478;9.224;2023-07-29T13:33:32;3.85;;;2.17;;
50128;SDS011;36026;45.478;9.224;2023-07-29T13:36:35;3.65;;;2.25;;
50128;SDS011;36026;45.478;9.224;2023-07-29T13:39:36;2.85;;;2.10;;
50128;SDS011;36026;45.478;9.224;2023-07-29T13:42:38;7.05;;;2.00;;
50128;SDS011;36026;45.478;9.224;2023-07-29T13:45:40;2.45;;;1.70;;
50128;SDS011;36026;45.478;9.224;2023-07-29T13:48:41;3.47;;;2.03;;
50128;SDS011;36026;45.478;9.224;2023-07-29T13:51:44;3.55;;;2.50;;
50128;SDS011;36026;45.478;9.224;2023-07-29T13:54:45;5.32;;;2.45;;
50128;SDS011;36026;45.478;9.224;2023-07-29T13:57:47;3.10;;;2.10;;
50128;SDS011;36026;45.478;9.224;2023-07-29T14:00:48;4.22;;;2.40;;
50128;SDS011;36026;45.478;9.224;2023-07-29T14:03:50;5.20;;;2.22;;
50128;SDS011;36026;45.478;9.224;2023-07-29T14:06:53;4.25;;;1.98;;
50128;SDS011;36026;45.478;9.224;2023-07-29T14:09:54;3.95;;;2.55;;
50128;SDS011;36026;45.478;9.224;2023-07-29T14:12:56;4.20;;;2.65;;
50128;SDS011;36026;45.478;9.224;2023-07-29T14:15:57;4.03;;;2.03;;
50128;SDS011;36026;45.478;9.224;2023-07-29T14:18:58;5.03;;;2.70;;
50128;SDS011;36026;45.478;9.224;2023-07-29T14:22:01;4.90;;;2.47;;
50128;SDS011;36026;45.478;9.224;2023-07-29T14:25:03;4.05;;;2.40;;
50128;SDS011;36026;45.478;9.224;2023-07-29T14:31:06;4.90;;;2.70;;
50128;SDS011;36026;45.478;9.224;2023-07-29T14:37:10;5.05;;;2.40;;
50128;SDS011;36026;45.478;9.224;2023-07-29T14:40:11;3.42;;;2.25;;
50128;SDS011;36026;45.478;9.224;2023-07-29T14:43:13;3.42;;;2.30;;
50128;SDS011;36026;45.478;9.224;2023-07-29T14:46:14;3.38;;;2.25;;
50128;SDS011;36026;45.478;9.224;2023-07-29T14:52:18;6.57;;;2.72;;
50128;SDS011;36026;45.478;9.224;2023-07-29T14:55:20;2.60;;;2.00;;
50128;SDS011;36026;45.478;9.224;2023-07-29T14:58:21;5.30;;;2.20;;
50128;SDS011;36026;45.478;9.224;2023-07-29T15:01:25;3.75;;;2.60;;
50128;SDS011;36026;45.478;9.224;2023-07-29T15:04:26;5.30;;;2.40;;
50128;SDS011;36026;45.478;9.224;2023-07-29T15:07:29;4.82;;;2.30;;
50128;SDS011;36026;45.478;9.224;2023-07-29T15:10:30;5.45;;;2.83;;
50128;SDS011;36026;45.478;9.224;2023-07-29T15:13:32;3.92;;;2.55;;
50128;SDS011;36026;45.478;9.224;2023-07-29T15:16:33;4.22;;;2.30;;
50128;SDS011;36026;45.478;9.224;2023-07-29T15:19:35;6.10;;;3.08;;
50128;SDS011;36026;45.478;9.224;2023-07-29T15:22:38;5.47;;;3.08;;
50128;SDS011;36026;45.478;9.224;2023-07-29T15:25:39;4.10;;;2.50;;
50128;SDS011;36026;45.478;9.224;2023-07-29T15:28:41;3.77;;;2.30;;
50128;SDS011;36026;45.478;9.224;2023-07-29T15:31:42;4.05;;;2.47;;
50128;SDS011;36026;45.478;9.224;2023-07-29T15:34:44;5.28;;;2.33;;
50128;SDS011;36026;45.478;9.224;2023-07-29T15:37:46;4.82;;;2.65;;
50128;SDS011;36026;45.478;9.224;2023-07-29T15:40:48;3.25;;;2.63;;
50128;SDS011;36026;45.478;9.224;2023-07-29T15:43:51;5.22;;;2.95;;
50128;SDS011;36026;45.478;9.224;2023-07-29T15:46:54;3.17;;;2.30;;
50128;SDS011;36026;45.478;9.224;2023-07-29T15:49:56;6.63;;;2.90;;
50128;SDS011;36026;45.478;9.224;2023-07-29T15:52:59;3.72;;;2.75;;
50128;SDS011;36026;45.478;9.224;2023-07-29T15:56:03;4.38;;;2.58;;
50128;SDS011;36026;45.478;9.224;2023-07-29T15:59:04;4.40;;;2.77;;
50128;SDS011;36026;45.478;9.224;2023-07-29T16:02:06;4.37;;;2.90;;
50128;SDS011;36026;45.478;9.224;2023-07-29T16:05:08;3.80;;;2.83;;
50128;SDS011;36026;45.478;9.224;2023-07-29T16:08:11;4.10;;;2.83;;
50128;SDS011;36026;45.478;9.224;2023-07-29T16:11:13;4.03;;;2.58;;
50128;SDS011;36026;45.478;9.224;2023-07-29T16:14:14;5.13;;;2.72;;
50128;SDS011;36026;45.478;9.224;2023-07-29T16:17:16;4.00;;;2.63;;
50128;SDS011;36026;45.478;9.224;2023-07-29T16:20:17;3.25;;;2.35;;
50128;SDS011;36026;45.478;9.224;2023-07-29T16:23:20;5.63;;;2.77;;
50128;SDS011;36026;45.478;9.224;2023-07-29T16:26:21;7.18;;;3.33;;
50128;SDS011;36026;45.478;9.224;2023-07-29T16:29:23;4.00;;;2.72;;
50128;SDS011;36026;45.478;9.224;2023-07-29T16:32:24;5.28;;;2.80;;
50128;SDS011;36026;45.478;9.224;2023-07-29T16:35:26;4.05;;;3.15;;
50128;SDS011;36026;45.478;9.224;2023-07-29T16:38:29;4.18;;;2.70;;
50128;SDS011;36026;45.478;9.224;2023-07-29T16:41:30;5.25;;;2.92;;
50128;SDS011;36026;45.478;9.224;2023-07-29T16:44:32;3.25;;;2.40;;
50128;SDS011;36026;45.478;9.224;2023-07-29T16:47:33;5.30;;;2.97;;
50128;SDS011;36026;45.478;9.224;2023-07-29T16:50:35;4.18;;;2.78;;
50128;SDS011;36026;45.478;9.224;2023-07-29T16:53:38;3.85;;;2.60;;
50128;SDS011;36026;45.478;9.224;2023-07-29T16:56:40;6.38;;;2.55;;
50128;SDS011;36026;45.478;9.224;2023-07-29T16:59:41;6.15;;;2.47;;
50128;SDS011;36026;45.478;9.224;2023-07-29T17:02:42;4.28;;;2.63;;
50128;SDS011;36026;45.478;9.224;2023-07-29T17:05:44;4.75;;;2.90;;
50128;SDS011;36026;45.478;9.224;2023-07-29T17:08:47;8.70;;;2.80;;
50128;SDS011;36026;45.478;9.224;2023-07-29T17:11:48;3.75;;;2.55;;
50128;SDS011;36026;45.478;9.224;2023-07-29T17:14:49;2.65;;;2.10;;
50128;SDS011;36026;45.478;9.224;2023-07-29T17:17:51;4.85;;;2.85;;
50128;SDS011;36026;45.478;9.224;2023-07-29T17:20:54;3.67;;;2.47;;
50128;SDS011;36026;45.478;9.224;2023-07-29T17:23:57;4.55;;;2.70;;
50128;SDS011;36026;45.478;9.224;2023-07-29T17:26:59;7.38;;;2.80;;
50128;SDS011;36026;45.478;9.224;2023-07-29T17:30:01;5.10;;;2.50;;
50128;SDS011;36026;45.478;9.224;2023-07-29T17:33:02;3.72;;;2.40;;
50128;SDS011;36026;45.478;9.224;2023-07-29T17:36:04;4.07;;;2.90;;
50128;SDS011;36026;45.478;9.224;2023-07-29T17:39:07;3.78;;;2.63;;
50128;SDS011;36026;45.478;9.224;2023-07-29T17:42:08;3.10;;;2.50;;
50128;SDS011;36026;45.478;9.224;2023-07-29T17:45:10;5.20;;;3.00;;
50128;SDS011;36026;45.478;9.224;2023-07-29T17:48:11;3.63;;;2.70;;
50128;SDS011;36026;45.478;9.224;2023-07-29T17:51:13;4.15;;;2.40;;
50128;SDS011;36026;45.478;9.224;2023-07-29T17:54:16;3.88;;;2.40;;
50128;SDS011;36026;45.478;9.224;2023-07-29T17:57:17;3.35;;;2.35;;
50128;SDS011;36026;45.478;9.224;2023-07-29T18:00:18;5.18;;;2.75;;
50128;SDS011;36026;45.478;9.224;2023-07-29T18:03:20;7.18;;;2.55;;
50128;SDS011;36026;45.478;9.224;2023-07-29T18:06:21;5.43;;;2.70;;
50128;SDS011;36026;45.478;9.224;2023-07-29T18:09:24;4.05;;;2.47;;
50128;SDS011;36026;45.478;9.224;2023-07-29T18:12:26;5.47;;;2.30;;
50128;SDS011;36026;45.478;9.224;2023-07-29T18:15:29;2.80;;;2.50;;
50128;SDS011;36026;45.478;9.224;2023-07-29T18:18:31;3.28;;;2.20;;
50128;SDS011;36026;45.478;9.224;2023-07-29T18:21:32;4.57;;;2.28;;
50128;SDS011;36026;45.478;9.224;2023-07-29T18:24:35;3.92;;;2.53;;
50128;SDS011;36026;45.478;9.224;2023-07-29T18:30:40;4.28;;;2.63;;
50128;SDS011;36026;45.478;9.224;2023-07-29T18:33:42;6.60;;;2.70;;
50128;SDS011;36026;45.478;9.224;2023-07-29T18:36:43;6.20;;;3.15;;
50128;SDS011;36026;45.478;9.224;2023-07-29T18:39:46;6.45;;;3.03;;
50128;SDS011;36026;45.478;9.224;2023-07-29T18:45:49;5.70;;;3.03;;
50128;SDS011;36026;45.478;9.224;2023-07-29T18:48:50;5.88;;;3.22;;